sensor_id;sensor_type;location;lat;lon;timestamp;P1;durP1;ratioP1;P2;durP2;ratioP2
53245;SDS011;39569;51.090;-1.786;2023-05-21T00:02:21;5.45;;;4.95;;
53245;SDS011;39569;51.090;-1.786;2023-05-21T00:04:48;10.10;;;4.90;;
53245;SDS011;39569;51.090;-1.786;2023-05-21T00:07:15;8.32;;;4.90;;
53245;SDS011;39569;51.090;-1.786;2023-05-21T00:09:42;7.57;;;4.57;;
53245;SDS011;39569;51.090;-1.786;2023-05-21T00:12:09;5.07;;;4.57;;
53245;SDS011;39569;51.090;-1.786;2023-05-21T00:14:37;8.63;;;5.20;;
53245;SDS011;39569;51.090;-1.786;2023-05-21T00:17:04;6.63;;;4.53;;
53245;SDS011;39569;51.090;-1.786;2023-05-21T00:19:31;9.57;;;5.68;;
53245;SDS011;39569;51.090;-1.786;2023-05-21T00:21:58;5.80;;;4.72;;
53245;SDS011;39569;51.090;-1.786;2023-05-21T00:24:26;10.63;;;5.15;;
53245;SDS011;39569;51.090;-1.786;2023-05-21T00:26:53;5.25;;;4.75;;
53245;SDS011;39569;51.090;-1.786;2023-05-21T00:29:20;29.15;;;4.32;;
53245;SDS011;39569;51.090;-1.786;2023-05-21T00:31:48;7.18;;;4.70;;
53245;SDS011;39569;51.090;-1.786;2023-05-21T00:34:16;9.15;;;5.43;;
53245;SDS011;39569;51.090;-1.786;2023-05-21T00:36:43;7.00;;;5.68;;
53245;SDS011;39569;51.090;-1.786;2023-05-21T00:39:10;8.95;;;4.97;;
53245;SDS011;39569;51.090;-1.786;2023-05-21T00:41:37;7.78;;;4.85;;
53245;SDS011;39569;51.090;-1.786;2023-05-21T00:44:04;7.53;;;5.65;;
53245;SDS011;39569;51.090;-1.786;2023-05-21T00:46:31;8.25;;;6.22;;
53245;SDS011;39569;51.090;-1.786;2023-05-21T00:49:01;9.75;;;5.95;;
53245;SDS011;39569;51.090;-1.786;2023-05-21T00:51:28;19.58;;;5.13;;
53245;SDS011;39569;51.090;-1.786;2023-05-21T00:53:55;7.10;;;5.55;;
53245;SDS011;39569;51.090;-1.786;2023-05-21T00:56:23;7.40;;;6.03;;
53245;SDS011;39569;51.090;-1.786;2023-05-21T00:58:51;6.13;;;5.53;;
53245;SDS011;39569;51.090;-1.786;2023-05-21T01:01:18;8.27;;;5.68;;
53245;SDS011;39569;51.090;-1.786;2023-05-21T01:03:49;3.70;;;3.38;;
53245;SDS011;39569;51.090;-1.786;2023-05-21T01:06:18;4.57;;;3.35;;
53245;SDS011;39569;51.090;-1.786;2023-05-21T01:08:44;3.60;;;3.30;;
53245;SDS011;39569;51.090;-1.786;2023-05-21T01:11:12;14.70;;;6.80;;
53245;SDS011;39569;51.090;-1.786;2023-05-21T01:13:39;8.38;;;6.72;;
53245;SDS011;39569;51.090;-1.786;2023-05-21T01:16:07;8.85;;;5.90;;
53245;SDS011;39569;51.090;-1.786;2023-05-21T01:18:37;9.48;;;6.85;;
53245;SDS011;39569;51.090;-1.786;2023-05-21T01:21:07;13.50;;;7.13;;
53245;SDS011;39569;51.090;-1.786;2023-05-21T01:23:35;6.47;;;5.88;;
53245;SDS011;39569;51.090;-1.786;2023-05-21T01:26:02;8.38;;;6.65;;
53245;SDS011;39569;51.090;-1.786;2023-05-21T01:28:29;11.00;;;6.25;;
53245;SDS011;39569;51.090;-1.786;2023-05-21T01:30:57;17.52;;;7.78;;
53245;SDS011;39569;51.090;-1.786;2023-05-21T01:33:35;19.33;;;4.65;;
53245;SDS011;39569;51.090;-1.786;2023-05-21T01:36:07;9.60;;;7.07;;
53245;SDS011;39569;51.090;-1.786;2023-05-21T01:38:41;6.45;;;5.85;;
53245;SDS011;39569;51.090;-1.786;2023-05-21T01:41:15;10.23;;;7.03;;
53245;SDS011;39569;51.090;-1.786;2023-05-21T01:43:45;2.78;;;2.58;;
53245;SDS011;39569;51.090;-1.786;2023-05-21T01:46:13;11.75;;;6.78;;
53245;SDS011;39569;51.090;-1.786;2023-05-21T01:48:42;6.10;;;5.50;;
53245;SDS011;39569;51.090;-1.786;2023-05-21T01:51:09;11.25;;;7.18;;
53245;SDS011;39569;51.090;-1.786;2023-05-21T01:53:37;12.90;;;6.25;;
53245;SDS011;39569;51.090;-1.786;2023-05-21T01:56:06;9.02;;;8.13;;
53245;SDS011;39569;51.090;-1.786;2023-05-21T01:58:33;10.30;;;8.38;;
53245;SDS011;39569;51.090;-1.786;2023-05-21T02:01:00;14.30;;;8.43;;
53245;SDS011;39569;51.090;-1.786;2023-05-21T02:03:27;17.38;;;9.13;;
53245;SDS011;39569;51.090;-1.786;2023-05-21T02:05:55;10.02;;;8.85;;
53245;SDS011;39569;51.090;-1.786;2023-05-21T02:08:21;14.38;;;8.05;;
53245;SDS011;39569;51.090;-1.786;2023-05-21T02:10:49;6.25;;;4.05;;
53245;SDS011;39569;51.090;-1.786;2023-05-21T02:13:17;12.38;;;8.80;;
53245;SDS011;39569;51.090;-1.786;2023-05-21T02:15:46;14.02;;;9.77;;
53245;SDS011;39569;51.090;-1.786;2023-05-21T02:18:13;14.13;;;9.10;;
53245;SDS011;39569;51.090;-1.786;2023-05-21T02:20:40;9.98;;;8.77;;
53245;SDS011;39569;51.090;-1.786;2023-05-21T02:23:07;18.05;;;10.05;;
53245;SDS011;39569;51.090;-1.786;2023-05-21T02:25:34;9.00;;;6.22;;
53245;SDS011;39569;51.090;-1.786;2023-05-21T02:28:01;13.05;;;8.95;;
53245;SDS011;39569;51.090;-1.786;2023-05-21T02:30:29;13.85;;;9.75;;
53245;SDS011;39569;51.090;-1.786;2023-05-21T02:32:56;20.73;;;9.50;;
53245;SDS011;39569;51.090;-1.786;2023-05-21T02:35:25;11.00;;;4.75;;
53245;SDS011;39569;51.090;-1.786;2023-05-21T02:37:51;10.52;;;5.03;;
53245;SDS011;39569;51.090;-1.786;2023-05-21T02:40:22;15.15;;;9.70;;
53245;SDS011;39569;51.090;-1.786;2023-05-21T02:42:50;5.90;;;4.15;;
53245;SDS011;39569;51.090;-1.786;2023-05-21T02:45:17;20.63;;;10.55;;
53245;SDS011;39569;51.090;-1.786;2023-05-21T02:47:45;21.23;;;9.30;;
53245;SDS011;39569;51.090;-1.786;2023-05-21T02:50:12;11.88;;;10.65;;
53245;SDS011;39569;51.090;-1.786;2023-05-21T02:52:39;17.30;;;10.52;;
53245;SDS011;39569;51.090;-1.786;2023-05-21T02:55:07;11.65;;;5.95;;
53245;SDS011;39569;51.090;-1.786;2023-05-21T02:57:34;16.17;;;10.48;;
53245;SDS011;39569;51.090;-1.786;2023-05-21T03:00:01;5.90;;;4.57;;
53245;SDS011;39569;51.090;-1.786;2023-05-21T03:02:29;11.95;;;5.78;;
53245;SDS011;39569;51.090;-1.786;2023-05-21T03:04:58;6.32;;;5.30;;
53245;SDS011;39569;51.090;-1.786;2023-05-21T03:07:24;16.60;;;10.90;;
53245;SDS011;39569;51.090;-1.786;2023-05-21T03:09:51;14.90;;;8.70;;
53245;SDS011;39569;51.090;-1.786;2023-05-21T03:12:18;12.68;;;8.90;;
53245;SDS011;39569;51.090;-1.786;2023-05-21T03:14:45;3.47;;;3.17;;
53245;SDS011;39569;51.090;-1.786;2023-05-21T03:17:11;11.18;;;9.60;;
53245;SDS011;39569;51.090;-1.786;2023-05-21T03:19:39;5.80;;;4.05;;
53245;SDS011;39569;51.090;-1.786;2023-05-21T03:22:07;4.22;;;3.47;;
53245;SDS011;39569;51.090;-1.786;2023-05-21T03:24:35;11.18;;;9.00;;
53245;SDS011;39569;51.090;-1.786;2023-05-21T03:27:02;5.65;;;5.15;;
53245;SDS011;39569;51.090;-1.786;2023-05-21T03:29:30;4.03;;;3.67;;
53245;SDS011;39569;51.090;-1.786;2023-05-21T03:31:57;16.63;;;9.63;;
53245;SDS011;39569;51.090;-1.786;2023-05-21T03:34:26;10.77;;;8.75;;
53245;SDS011;39569;51.090;-1.786;2023-05-21T03:36:53;12.60;;;9.10;;
53245;SDS011;39569;51.090;-1.786;2023-05-21T03:39:21;15.00;;;9.05;;
53245;SDS011;39569;51.090;-1.786;2023-05-21T03:41:48;13.95;;;10.10;;
53245;SDS011;39569;51.090;-1.786;2023-05-21T03:44:15;16.48;;;5.10;;
53245;SDS011;39569;51.090;-1.786;2023-05-21T03:46:41;10.05;;;4.97;;
53245;SDS011;39569;51.090;-1.786;2023-05-21T03:49:09;19.65;;;10.00;;
53245;SDS011;39569;51.090;-1.786;2023-05-21T03:51:36;12.77;;;10.20;;
53245;SDS011;39569;51.090;-1.786;2023-05-21T03:54:03;17.30;;;11.27;;
53245;SDS011;39569;51.090;-1.786;2023-05-21T03:56:31;7.22;;;5.07;;
53245;SDS011;39569;51.090;-1.786;2023-05-21T03:58:58;4.10;;;3.58;;
53245;SDS011;39569;51.090;-1.786;2023-05-21T04:01:25;12.25;;;9.85;;
53245;SDS011;39569;51.090;-1.786;2023-05-21T04:03:52;10.60;;;9.63;;
53245;SDS011;39569;51.090;-1.786;2023-05-21T04:06:19;4.88;;;3.83;;
53245;SDS011;39569;51.090;-1.786;2023-05-21T04:08:45;12.10;;;9.68;;
53245;SDS011;39569;51.090;-1.786;2023-05-21T04:11:12;11.68;;;5.32;;
53245;SDS011;39569;51.090;-1.786;2023-05-21T04:13:40;7.97;;;5.07;;
53245;SDS011;39569;51.090;-1.786;2023-05-21T04:16:07;7.03;;;6.43;;
53245;SDS011;39569;51.090;-1.786;2023-05-21T04:18:34;9.23;;;4.45;;
53245;SDS011;39569;51.090;-1.786;2023-05-21T04:21:01;12.48;;;10.55;;
53245;SDS011;39569;51.090;-1.786;2023-05-21T04:23:28;5.20;;;4.70;;
53245;SDS011;39569;51.090;-1.786;2023-05-21T04:25:54;13.02;;;4.88;;
53245;SDS011;39569;51.090;-1.786;2023-05-21T04:28:21;15.75;;;9.55;;
53245;SDS011;39569;51.090;-1.786;2023-05-21T04:30:49;23.65;;;6.07;;
53245;SDS011;39569;51.090;-1.786;2023-05-21T04:33:16;31.92;;;4.90;;
53245;SDS011;39569;51.090;-1.786;2023-05-21T04:35:44;16.77;;;9.32;;
53245;SDS011;39569;51.090;-1.786;2023-05-21T04:38:13;3.33;;;3.13;;
53245;SDS011;39569;51.090;-1.786;2023-05-21T04:40:43;11.50;;;7.30;;
53245;SDS011;39569;51.090;-1.786;2023-05-21T04:43:10;6.43;;;4.28;;
53245;SDS011;39569;51.090;-1.786;2023-05-21T04:45:37;22.00;;;10.30;;
53245;SDS011;39569;51.090;-1.786;2023-05-21T04:48:05;4.32;;;3.92;;
53245;SDS011;39569;51.090;-1.786;2023-05-21T04:50:32;12.02;;;9.20;;
53245;SDS011;39569;51.090;-1.786;2023-05-21T04:52:59;14.35;;;5.22;;
53245;SDS011;39569;51.090;-1.786;2023-05-21T04:55:25;12.10;;;10.07;;
53245;SDS011;39569;51.090;-1.786;2023-05-21T04:57:53;17.55;;;11.25;;
53245;SDS011;39569;51.090;-1.786;2023-05-21T05:00:19;11.10;;;9.88;;
53245;SDS011;39569;51.090;-1.786;2023-05-21T05:02:46;6.63;;;4.68;;
53245;SDS011;39569;51.090;-1.786;2023-05-21T05:05:14;6.45;;;5.00;;
53245;SDS011;39569;51.090;-1.786;2023-05-21T05:07:41;16.63;;;10.63;;
53245;SDS011;39569;51.090;-1.786;2023-05-21T05:10:08;6.53;;;4.28;;
53245;SDS011;39569;51.090;-1.786;2023-05-21T05:12:35;11.68;;;5.53;;
53245;SDS011;39569;51.090;-1.786;2023-05-21T05:15:02;9.70;;;5.00;;
53245;SDS011;39569;51.090;-1.786;2023-05-21T05:17:29;6.68;;;5.38;;
53245;SDS011;39569;51.090;-1.786;2023-05-21T05:19:56;3.55;;;3.25;;
53245;SDS011;39569;51.090;-1.786;2023-05-21T05:22:24;10.23;;;9.23;;
53245;SDS011;39569;51.090;-1.786;2023-05-21T05:24:50;8.73;;;3.88;;
53245;SDS011;39569;51.090;-1.786;2023-05-21T05:27:17;7.57;;;4.30;;
53245;SDS011;39569;51.090;-1.786;2023-05-21T05:29:44;14.52;;;10.27;;
53245;SDS011;39569;51.090;-1.786;2023-05-21T05:32:11;12.88;;;8.88;;
53245;SDS011;39569;51.090;-1.786;2023-05-21T05:34:37;19.15;;;9.98;;
53245;SDS011;39569;51.090;-1.786;2023-05-21T05:37:04;9.95;;;8.90;;
53245;SDS011;39569;51.090;-1.786;2023-05-21T05:39:32;13.35;;;9.18;;
53245;SDS011;39569;51.090;-1.786;2023-05-21T05:41:59;17.65;;;9.25;;
53245;SDS011;39569;51.090;-1.786;2023-05-21T05:44:27;10.98;;;9.45;;
53245;SDS011;39569;51.090;-1.786;2023-05-21T05:46:54;9.77;;;8.68;;
53245;SDS011;39569;51.090;-1.786;2023-05-21T05:49:20;11.73;;;9.30;;
53245;SDS011;39569;51.090;-1.786;2023-05-21T05:51:47;11.95;;;8.25;;
53245;SDS011;39569;51.090;-1.786;2023-05-21T05:54:14;8.27;;;4.95;;
53245;SDS011;39569;51.090;-1.786;2023-05-21T05:56:42;12.23;;;9.30;;
53245;SDS011;39569;51.090;-1.786;2023-05-21T05:59:09;15.65;;;8.02;;
53245;SDS011;39569;51.090;-1.786;2023-05-21T06:01:35;12.90;;;8.75;;
53245;SDS011;39569;51.090;-1.786;2023-05-21T06:04:02;13.15;;;8.40;;
53245;SDS011;39569;51.090;-1.786;2023-05-21T06:06:29;10.07;;;7.80;;
53245;SDS011;39569;51.090;-1.786;2023-05-21T06:08:56;16.63;;;8.55;;
53245;SDS011;39569;51.090;-1.786;2023-05-21T06:11:22;13.70;;;8.35;;
53245;SDS011;39569;51.090;-1.786;2023-05-21T06:13:51;14.10;;;8.68;;
53245;SDS011;39569;51.090;-1.786;2023-05-21T06:16:17;9.40;;;8.27;;
53245;SDS011;39569;51.090;-1.786;2023-05-21T06:18:44;10.15;;;7.93;;
53245;SDS011;39569;51.090;-1.786;2023-05-21T06:21:11;14.75;;;7.78;;
53245;SDS011;39569;51.090;-1.786;2023-05-21T06:23:38;13.55;;;7.68;;
53245;SDS011;39569;51.090;-1.786;2023-05-21T06:26:04;8.68;;;7.28;;
53245;SDS011;39569;51.090;-1.786;2023-05-21T06:28:31;9.57;;;7.57;;
53245;SDS011;39569;51.090;-1.786;2023-05-21T06:30:59;13.73;;;7.90;;
53245;SDS011;39569;51.090;-1.786;2023-05-21T06:33:26;14.98;;;7.90;;
53245;SDS011;39569;51.090;-1.786;2023-05-21T06:35:53;11.20;;;6.78;;
53245;SDS011;39569;51.090;-1.786;2023-05-21T06:38:19;14.38;;;8.32;;
53245;SDS011;39569;51.090;-1.786;2023-05-21T06:40:46;14.18;;;7.78;;
53245;SDS011;39569;51.090;-1.786;2023-05-21T06:43:13;12.38;;;7.10;;
53245;SDS011;39569;51.090;-1.786;2023-05-21T06:45:40;11.02;;;6.85;;
53245;SDS011;39569;51.090;-1.786;2023-05-21T06:48:08;12.73;;;8.40;;
53245;SDS011;39569;51.090;-1.786;2023-05-21T06:50:36;12.07;;;6.85;;
53245;SDS011;39569;51.090;-1.786;2023-05-21T06:53:03;23.73;;;7.88;;
53245;SDS011;39569;51.090;-1.786;2023-05-21T06:55:29;8.02;;;6.90;;
53245;SDS011;39569;51.090;-1.786;2023-05-21T06:57:56;10.35;;;6.78;;
53245;SDS011;39569;51.090;-1.786;2023-05-21T07:00:23;10.00;;;7.00;;
53245;SDS011;39569;51.090;-1.786;2023-05-21T07:02:50;9.05;;;6.88;;
53245;SDS011;39569;51.090;-1.786;2023-05-21T07:05:18;7.20;;;5.25;;
53245;SDS011;39569;51.090;-1.786;2023-05-21T07:07:45;8.82;;;5.43;;
53245;SDS011;39569;51.090;-1.786;2023-05-21T07:10:12;13.95;;;7.25;;
53245;SDS011;39569;51.090;-1.786;2023-05-21T07:12:39;11.82;;;5.78;;
53245;SDS011;39569;51.090;-1.786;2023-05-21T07:15:06;7.03;;;5.95;;
53245;SDS011;39569;51.090;-1.786;2023-05-21T07:17:34;10.75;;;6.50;;
53245;SDS011;39569;51.090;-1.786;2023-05-21T07:20:01;6.15;;;5.07;;
53245;SDS011;39569;51.090;-1.786;2023-05-21T07:22:31;13.82;;;5.90;;
53245;SDS011;39569;51.090;-1.786;2023-05-21T07:24:58;7.15;;;5.03;;
53245;SDS011;39569;51.090;-1.786;2023-05-21T07:27:25;7.50;;;5.63;;
53245;SDS011;39569;51.090;-1.786;2023-05-21T07:29:51;6.28;;;4.95;;
53245;SDS011;39569;51.090;-1.786;2023-05-21T07:32:18;6.82;;;5.55;;
53245;SDS011;39569;51.090;-1.786;2023-05-21T07:34:45;12.68;;;5.65;;
53245;SDS011;39569;51.090;-1.786;2023-05-21T07:37:12;8.23;;;5.47;;
53245;SDS011;39569;51.090;-1.786;2023-05-21T07:39:40;9.93;;;6.45;;
53245;SDS011;39569;51.090;-1.786;2023-05-21T07:42:07;8.95;;;5.65;;
53245;SDS011;39569;51.090;-1.786;2023-05-21T07:44:34;12.35;;;5.18;;
53245;SDS011;39569;51.090;-1.786;2023-05-21T07:47:00;11.60;;;4.80;;
53245;SDS011;39569;51.090;-1.786;2023-05-21T07:49:27;9.10;;;4.60;;
53245;SDS011;39569;51.090;-1.786;2023-05-21T07:51:54;6.80;;;4.80;;
53245;SDS011;39569;51.090;-1.786;2023-05-21T07:54:21;7.25;;;4.18;;
53245;SDS011;39569;51.090;-1.786;2023-05-21T07:56:49;7.55;;;4.55;;
53245;SDS011;39569;51.090;-1.786;2023-05-21T07:59:16;4.32;;;3.92;;
53245;SDS011;39569;51.090;-1.786;2023-05-21T08:01:42;5.47;;;4.95;;
53245;SDS011;39569;51.090;-1.786;2023-05-21T08:04:09;12.48;;;3.53;;
53245;SDS011;39569;51.090;-1.786;2023-05-21T08:06:37;4.60;;;4.15;;
53245;SDS011;39569;51.090;-1.786;2023-05-21T08:09:04;9.48;;;4.18;;
53245;SDS011;39569;51.090;-1.786;2023-05-21T08:11:31;7.43;;;4.50;;
53245;SDS011;39569;51.090;-1.786;2023-05-21T08:13:59;5.35;;;3.80;;
53245;SDS011;39569;51.090;-1.786;2023-05-21T08:16:26;5.53;;;4.43;;
53245;SDS011;39569;51.090;-1.786;2023-05-21T08:18:53;6.75;;;3.55;;
53245;SDS011;39569;51.090;-1.786;2023-05-21T08:21:19;3.92;;;3.33;;
53245;SDS011;39569;51.090;-1.786;2023-05-21T08:23:46;4.70;;;3.22;;
53245;SDS011;39569;51.090;-1.786;2023-05-21T08:26:13;3.72;;;3.42;;
53245;SDS011;39569;51.090;-1.786;2023-05-21T08:28:41;4.43;;;3.08;;
53245;SDS011;39569;51.090;-1.786;2023-05-21T08:31:09;5.50;;;3.13;;
53245;SDS011;39569;51.090;-1.786;2023-05-21T08:33:36;4.07;;;3.35;;
53245;SDS011;39569;51.090;-1.786;2023-05-21T08:36:04;5.15;;;3.60;;
53245;SDS011;39569;51.090;-1.786;2023-05-21T08:38:31;9.57;;;4.22;;
53245;SDS011;39569;51.090;-1.786;2023-05-21T08:40:59;3.58;;;3.28;;
53245;SDS011;39569;51.090;-1.786;2023-05-21T08:43:26;4.15;;;3.08;;
53245;SDS011;39569;51.090;-1.786;2023-05-21T08:45:53;4.28;;;3.53;;
53245;SDS011;39569;51.090;-1.786;2023-05-21T08:48:24;12.35;;;2.92;;
53245;SDS011;39569;51.090;-1.786;2023-05-21T08:50:51;4.78;;;3.42;;
53245;SDS011;39569;51.090;-1.786;2023-05-21T08:53:18;6.03;;;3.60;;
53245;SDS011;39569;51.090;-1.786;2023-05-21T08:55:45;3.35;;;3.05;;
53245;SDS011;39569;51.090;-1.786;2023-05-21T08:58:14;12.07;;;3.17;;
53245;SDS011;39569;51.090;-1.786;2023-05-21T09:00:41;3.85;;;3.17;;
53245;SDS011;39569;51.090;-1.786;2023-05-21T09:03:08;3.40;;;3.10;;
53245;SDS011;39569;51.090;-1.786;2023-05-21T09:05:39;4.13;;;3.30;;
53245;SDS011;39569;51.090;-1.786;2023-05-21T09:08:10;11.82;;;4.80;;
53245;SDS011;39569;51.090;-1.786;2023-05-21T09:10:44;3.97;;;3.65;;
53245;SDS011;39569;51.090;-1.786;2023-05-21T09:13:13;6.15;;;4.05;;
53245;SDS011;39569;51.090;-1.786;2023-05-21T09:15:42;6.03;;;3.75;;
53245;SDS011;39569;51.090;-1.786;2023-05-21T09:18:09;3.35;;;3.05;;
53245;SDS011;39569;51.090;-1.786;2023-05-21T09:20:36;5.15;;;3.72;;
53245;SDS011;39569;51.090;-1.786;2023-05-21T09:23:04;3.38;;;3.08;;
53245;SDS011;39569;51.090;-1.786;2023-05-21T09:25:36;6.65;;;3.42;;
53245;SDS011;39569;51.090;-1.786;2023-05-21T09:28:10;6.50;;;3.65;;
53245;SDS011;39569;51.090;-1.786;2023-05-21T09:30:42;6.75;;;3.92;;
53245;SDS011;39569;51.090;-1.786;2023-05-21T09:33:09;6.18;;;2.97;;
53245;SDS011;39569;51.090;-1.786;2023-05-21T09:35:37;3.45;;;2.63;;
53245;SDS011;39569;51.090;-1.786;2023-05-21T09:38:11;3.72;;;2.83;;
53245;SDS011;39569;51.090;-1.786;2023-05-21T09:40:42;4.03;;;2.90;;
53245;SDS011;39569;51.090;-1.786;2023-05-21T09:43:12;6.22;;;3.22;;
53245;SDS011;39569;51.090;-1.786;2023-05-21T09:45:39;3.42;;;2.65;;
53245;SDS011;39569;51.090;-1.786;2023-05-21T09:48:16;5.22;;;3.20;;
53245;SDS011;39569;51.090;-1.786;2023-05-21T09:50:43;4.15;;;3.20;;
53245;SDS011;39569;51.090;-1.786;2023-05-21T09:53:12;3.53;;;2.95;;
53245;SDS011;39569;51.090;-1.786;2023-05-21T09:55:39;3.78;;;2.40;;
53245;SDS011;39569;51.090;-1.786;2023-05-21T09:58:06;3.58;;;3.13;;
53245;SDS011;39569;51.090;-1.786;2023-05-21T10:00:35;2.65;;;2.45;;
53245;SDS011;39569;51.090;-1.786;2023-05-21T10:03:04;6.22;;;2.75;;
53245;SDS011;39569;51.090;-1.786;2023-05-21T10:05:35;3.40;;;2.90;;
53245;SDS011;39569;51.090;-1.786;2023-05-21T10:08:03;3.70;;;3.38;;
53245;SDS011;39569;51.090;-1.786;2023-05-21T10:10:33;4.35;;;2.55;;
53245;SDS011;39569;51.090;-1.786;2023-05-21T10:13:04;2.72;;;2.53;;
53245;SDS011;39569;51.090;-1.786;2023-05-21T10:15:34;3.67;;;2.00;;
53245;SDS011;39569;51.090;-1.786;2023-05-21T10:18:04;3.53;;;3.25;;
53245;SDS011;39569;51.090;-1.786;2023-05-21T10:20:32;2.67;;;2.20;;
53245;SDS011;39569;51.090;-1.786;2023-05-21T10:22:59;3.55;;;3.13;;
53245;SDS011;39569;51.090;-1.786;2023-05-21T10:25:27;2.85;;;2.65;;
53245;SDS011;39569;51.090;-1.786;2023-05-21T10:27:55;6.63;;;3.17;;
53245;SDS011;39569;51.090;-1.786;2023-05-21T10:30:23;5.95;;;3.30;;
53245;SDS011;39569;51.090;-1.786;2023-05-21T10:32:50;2.83;;;2.63;;
53245;SDS011;39569;51.090;-1.786;2023-05-21T10:35:17;5.10;;;3.13;;
53245;SDS011;39569;51.090;-1.786;2023-05-21T10:37:44;3.35;;;2.83;;
53245;SDS011;39569;51.090;-1.786;2023-05-21T10:40:11;2.70;;;2.47;;
53245;SDS011;39569;51.090;-1.786;2023-05-21T10:42:47;5.35;;;3.03;;
53245;SDS011;39569;51.090;-1.786;2023-05-21T10:45:36;5.07;;;2.95;;
53245;SDS011;39569;51.090;-1.786;2023-05-21T10:48:25;7.07;;;3.63;;
53245;SDS011;39569;51.090;-1.786;2023-05-21T10:51:06;2.72;;;2.30;;
53245;SDS011;39569;51.090;-1.786;2023-05-21T10:53:47;3.45;;;3.03;;
53245;SDS011;39569;51.090;-1.786;2023-05-21T10:59:07;5.57;;;3.05;;
53245;SDS011;39569;51.090;-1.786;2023-05-21T11:01:40;3.83;;;2.22;;
53245;SDS011;39569;51.090;-1.786;2023-05-21T11:04:07;2.78;;;2.38;;
53245;SDS011;39569;51.090;-1.786;2023-05-21T11:06:36;3.22;;;2.67;;
53245;SDS011;39569;51.090;-1.786;2023-05-21T11:09:10;3.75;;;3.45;;
53245;SDS011;39569;51.090;-1.786;2023-05-21T11:11:38;18.42;;;4.32;;
53245;SDS011;39569;51.090;-1.786;2023-05-21T11:14:29;2.30;;;2.13;;
53245;SDS011;39569;51.090;-1.786;2023-05-21T11:17:01;4.28;;;2.97;;
53245;SDS011;39569;51.090;-1.786;2023-05-21T11:19:31;9.13;;;4.80;;
53245;SDS011;39569;51.090;-1.786;2023-05-21T11:22:04;6.75;;;3.92;;
53245;SDS011;39569;51.090;-1.786;2023-05-21T11:24:34;5.07;;;4.38;;
53245;SDS011;39569;51.090;-1.786;2023-05-21T11:27:03;5.38;;;3.50;;
53245;SDS011;39569;51.090;-1.786;2023-05-21T11:29:31;4.13;;;2.78;;
53245;SDS011;39569;51.090;-1.786;2023-05-21T11:32:06;4.93;;;3.45;;
53245;SDS011;39569;51.090;-1.786;2023-05-21T11:34:38;6.28;;;3.15;;
53245;SDS011;39569;51.090;-1.786;2023-05-21T11:37:23;9.40;;;3.35;;
53245;SDS011;39569;51.090;-1.786;2023-05-21T11:39:57;7.35;;;3.75;;
53245;SDS011;39569;51.090;-1.786;2023-05-21T11:42:39;4.60;;;2.83;;
53245;SDS011;39569;51.090;-1.786;2023-05-21T11:45:08;4.38;;;3.97;;
53245;SDS011;39569;51.090;-1.786;2023-05-21T11:47:38;3.63;;;2.88;;
53245;SDS011;39569;51.090;-1.786;2023-05-21T11:50:05;3.63;;;3.33;;
53245;SDS011;39569;51.090;-1.786;2023-05-21T11:52:38;6.85;;;3.72;;
53245;SDS011;39569;51.090;-1.786;2023-05-21T11:55:06;3.30;;;3.08;;
53245;SDS011;39569;51.090;-1.786;2023-05-21T11:57:33;3.00;;;2.80;;
53245;SDS011;39569;51.090;-1.786;2023-05-21T12:00:00;8.95;;;4.30;;
53245;SDS011;39569;51.090;-1.786;2023-05-21T12:02:38;3.13;;;2.92;;
53245;SDS011;39569;51.090;-1.786;2023-05-21T12:05:09;6.65;;;3.58;;
53245;SDS011;39569;51.090;-1.786;2023-05-21T12:07:36;3.00;;;2.80;;
53245;SDS011;39569;51.090;-1.786;2023-05-21T12:10:04;4.15;;;3.28;;
53245;SDS011;39569;51.090;-1.786;2023-05-21T12:12:31;7.47;;;3.53;;
53245;SDS011;39569;51.090;-1.786;2023-05-21T12:14:58;3.05;;;2.75;;
53245;SDS011;39569;51.090;-1.786;2023-05-21T12:17:26;2.75;;;2.22;;
53245;SDS011;39569;51.090;-1.786;2023-05-21T12:19:56;6.25;;;3.92;;
53245;SDS011;39569;51.090;-1.786;2023-05-21T12:22:23;5.85;;;3.80;;
53245;SDS011;39569;51.090;-1.786;2023-05-21T12:24:52;10.75;;;3.35;;
53245;SDS011;39569;51.090;-1.786;2023-05-21T12:27:19;3.15;;;2.85;;
53245;SDS011;39569;51.090;-1.786;2023-05-21T12:29:49;4.03;;;3.13;;
53245;SDS011;39569;51.090;-1.786;2023-05-21T12:32:16;3.47;;;3.17;;
53245;SDS011;39569;51.090;-1.786;2023-05-21T12:34:47;4.53;;;2.88;;
53245;SDS011;39569;51.090;-1.786;2023-05-21T12:37:16;17.20;;;3.75;;
53245;SDS011;39569;51.090;-1.786;2023-05-21T12:39:46;5.95;;;3.17;;
53245;SDS011;39569;51.090;-1.786;2023-05-21T12:42:14;6.70;;;3.13;;
53245;SDS011;39569;51.090;-1.786;2023-05-21T12:44:42;4.22;;;3.50;;
53245;SDS011;39569;51.090;-1.786;2023-05-21T12:47:10;3.45;;;3.15;;
53245;SDS011;39569;51.090;-1.786;2023-05-21T12:49:38;10.18;;;3.40;;
53245;SDS011;39569;51.090;-1.786;2023-05-21T12:52:09;4.88;;;3.45;;
53245;SDS011;39569;51.090;-1.786;2023-05-21T12:54:39;5.95;;;3.25;;
53245;SDS011;39569;51.090;-1.786;2023-05-21T12:57:13;5.43;;;3.47;;
53245;SDS011;39569;51.090;-1.786;2023-05-21T12:59:45;5.28;;;3.50;;
53245;SDS011;39569;51.090;-1.786;2023-05-21T13:02:18;6.10;;;2.97;;
53245;SDS011;39569;51.090;-1.786;2023-05-21T13:04:45;5.95;;;2.72;;
53245;SDS011;39569;51.090;-1.786;2023-05-21T13:07:13;4.35;;;2.92;;
53245;SDS011;39569;51.090;-1.786;2023-05-21T13:09:42;4.20;;;3.72;;
53245;SDS011;39569;51.090;-1.786;2023-05-21T13:12:10;3.95;;;3.42;;
53245;SDS011;39569;51.090;-1.786;2023-05-21T13:14:37;3.70;;;3.00;;
53245;SDS011;39569;51.090;-1.786;2023-05-21T13:17:04;12.93;;;2.40;;
53245;SDS011;39569;51.090;-1.786;2023-05-21T13:19:31;3.17;;;2.95;;
53245;SDS011;39569;51.090;-1.786;2023-05-21T13:21:58;5.35;;;3.10;;
53245;SDS011;39569;51.090;-1.786;2023-05-21T13:24:24;4.82;;;3.42;;
53245;SDS011;39569;51.090;-1.786;2023-05-21T13:26:52;4.60;;;3.15;;
53245;SDS011;39569;51.090;-1.786;2023-05-21T13:29:19;3.00;;;2.75;;
53245;SDS011;39569;51.090;-1.786;2023-05-21T13:31:46;3.13;;;2.92;;
53245;SDS011;39569;51.090;-1.786;2023-05-21T13:34:13;4.55;;;3.60;;
53245;SDS011;39569;51.090;-1.786;2023-05-21T13:36:40;10.60;;;3.42;;
53245;SDS011;39569;51.090;-1.786;2023-05-21T13:39:07;4.28;;;3.85;;
53245;SDS011;39569;51.090;-1.786;2023-05-21T13:41:33;3.45;;;3.00;;
53245;SDS011;39569;51.090;-1.786;2023-05-21T13:44:02;3.60;;;3.30;;
53245;SDS011;39569;51.090;-1.786;2023-05-21T13:46:28;4.63;;;3.25;;
53245;SDS011;39569;51.090;-1.786;2023-05-21T13:48:55;5.28;;;3.53;;
53245;SDS011;39569;51.090;-1.786;2023-05-21T13:51:22;3.45;;;3.15;;
53245;SDS011;39569;51.090;-1.786;2023-05-21T13:53:49;2.70;;;2.50;;
53245;SDS011;39569;51.090;-1.786;2023-05-21T13:56:15;4.57;;;3.42;;
53245;SDS011;39569;51.090;-1.786;2023-05-21T13:58:42;4.30;;;3.95;;
53245;SDS011;39569;51.090;-1.786;2023-05-21T14:01:11;4.68;;;2.88;;
53245;SDS011;39569;51.090;-1.786;2023-05-21T14:03:38;3.78;;;3.55;;
53245;SDS011;39569;51.090;-1.786;2023-05-21T14:06:04;3.83;;;3.38;;
53245;SDS011;39569;51.090;-1.786;2023-05-21T14:08:32;4.97;;;3.72;;
53245;SDS011;39569;51.090;-1.786;2023-05-21T14:10:59;3.95;;;3.20;;
53245;SDS011;39569;51.090;-1.786;2023-05-21T14:13:26;5.80;;;4.05;;
53245;SDS011;39569;51.090;-1.786;2023-05-21T14:15:52;4.60;;;3.45;;
53245;SDS011;39569;51.090;-1.786;2023-05-21T14:18:21;4.07;;;3.75;;
53245;SDS011;39569;51.090;-1.786;2023-05-21T14:20:48;3.20;;;2.83;;
53245;SDS011;39569;51.090;-1.786;2023-05-21T14:23:14;5.47;;;3.38;;
53245;SDS011;39569;51.090;-1.786;2023-05-21T14:25:41;5.03;;;3.45;;
53245;SDS011;39569;51.090;-1.786;2023-05-21T14:28:08;3.83;;;3.15;;
53245;SDS011;39569;51.090;-1.786;2023-05-21T14:30:35;3.50;;;3.20;;
53245;SDS011;39569;51.090;-1.786;2023-05-21T14:33:01;11.57;;;4.15;;
53245;SDS011;39569;51.090;-1.786;2023-05-21T14:35:29;4.05;;;3.65;;
53245;SDS011;39569;51.090;-1.786;2023-05-21T14:37:56;4.60;;;4.20;;